createdAt,value
2019-02-18T00:02:32.329Z,101583.44
2019-02-18T00:06:35.109Z,101594.23
2019-02-18T00:10:37.846Z,101599.44
2019-02-18T00:14:40.672Z,101591.62
2019-02-18T00:18:43.394Z,101589.45
2019-02-18T00:22:46.230Z,101587.34
2019-02-18T00:26:49.063Z,101573.98
2019-02-18T00:30:51.862Z,101583.19
2019-02-18T00:34:54.480Z,101584.98
2019-02-18T00:38:57.163Z,101582.41
2019-02-18T00:42:59.754Z,101579.81
2019-02-18T00:47:02.557Z,101581.59
2019-02-18T00:51:05.237Z,101576.83
2019-02-18T00:55:08.118Z,101580.80
2019-02-18T00:59:10.774Z,101576.50
2019-02-18T01:03:13.462Z,101575.23
2019-02-18T01:07:16.256Z,101566.62
2019-02-18T01:11:20.652Z,101564.91
2019-02-18T01:15:24.406Z,101565.76
2019-02-18T01:19:27.090Z,101572.27
2019-02-18T01:23:29.868Z,101583.09
2019-02-18T01:27:32.563Z,101583.50
2019-02-18T01:31:35.467Z,101583.04
2019-02-18T01:35:38.249Z,101576.10
2019-02-18T01:39:40.782Z,101571.67
2019-02-18T01:43:43.521Z,101562.71
2019-02-18T01:47:46.113Z,101574.70
2019-02-18T01:51:48.864Z,101583.67
2019-02-18T01:55:51.510Z,101574.91
2019-02-18T01:59:54.182Z,101584.92
2019-02-18T02:03:56.889Z,101578.45
2019-02-18T02:08:03.157Z,101582.41
2019-02-18T02:12:06.353Z,101581.61
2019-02-18T02:16:11.434Z,101587.59
2019-02-18T02:20:14.412Z,101584.09
2019-02-18T02:24:17.071Z,101577.56
2019-02-18T02:28:19.803Z,101577.96
2019-02-18T02:32:22.475Z,101576.17
2019-02-18T02:36:25.387Z,101572.27
2019-02-18T02:40:28.158Z,101569.62
2019-02-18T02:44:30.827Z,101570.88
2019-02-18T02:48:33.610Z,101569.11
2019-02-18T02:52:36.249Z,101574.22
2019-02-18T02:56:39.090Z,101583.30
2019-02-18T03:00:41.742Z,101589.77
2019-02-18T03:04:44.703Z,101584.79
2019-02-18T03:08:47.390Z,101579.86
2019-02-18T03:12:51.531Z,101583.20
2019-02-18T03:16:54.307Z,101585.34
2019-02-18T03:20:57.068Z,101579.77
2019-02-18T03:25:20.127Z,101573.25
2019-02-18T03:29:58.306Z,101574.84
2019-02-18T03:34:11.625Z,101577.02
2019-02-18T03:38:14.342Z,101587.41
2019-02-18T03:42:17.047Z,101574.78
2019-02-18T03:46:19.946Z,101584.30
2019-02-18T03:50:22.540Z,101585.14
2019-02-18T03:54:25.428Z,101578.59
2019-02-18T03:58:28.110Z,101579.81
2019-02-18T04:02:30.899Z,101580.17
2019-02-18T04:06:33.701Z,101571.41
2019-02-18T04:10:36.377Z,101581.32
2019-02-18T04:14:39.575Z,101586.42
2019-02-18T04:18:42.362Z,101579.81
2019-02-18T04:22:44.894Z,101569.77
2019-02-18T04:26:47.534Z,101563.20
2019-02-18T04:30:50.156Z,101556.64
2019-02-18T04:34:53.036Z,101550.52
2019-02-18T04:38:55.655Z,101535.23
2019-02-18T04:42:58.404Z,101529.48
2019-02-18T04:47:01.290Z,101532.45
2019-02-18T04:51:03.984Z,101528.58
2019-02-18T04:55:07.149Z,101533.84
2019-02-18T04:59:09.935Z,101534.77
2019-02-18T05:03:15.836Z,101535.20
2019-02-18T05:07:21.445Z,101536.41
2019-02-18T05:11:30.050Z,101529.78
2019-02-18T05:15:33.875Z,101526.59
2019-02-18T05:19:36.891Z,101522.58
2019-02-18T05:23:39.535Z,101533.80
2019-02-18T05:27:42.286Z,101533.30
2019-02-18T05:31:45.013Z,101530.12
2019-02-18T05:35:47.707Z,101517.81
2019-02-18T05:39:50.748Z,101515.53
2019-02-18T05:43:53.453Z,101510.20
2019-02-18T05:47:56.077Z,101510.95
2019-02-18T05:51:58.901Z,101512.05
2019-02-18T05:56:01.699Z,101505.82
2019-02-18T06:00:05.125Z,101501.72
2019-02-18T06:04:07.830Z,101503.42
2019-02-18T06:08:10.423Z,101497.20
2019-02-18T06:12:13.192Z,101501.05
2019-02-18T06:16:15.903Z,101498.37
2019-02-18T06:20:18.687Z,101490.39
2019-02-18T06:24:23.929Z,101479.74
2019-02-18T06:28:26.727Z,101483.48
2019-02-18T06:32:29.417Z,101469.78
2019-02-18T06:36:32.004Z,101459.12
2019-02-18T06:40:34.499Z,101451.48
2019-02-18T06:44:47.292Z,101453.00
2019-02-18T06:48:56.773Z,101453.16
2019-02-18T06:52:59.625Z,101445.14
2019-02-18T06:57:22.133Z,101454.69
2019-02-18T07:01:46.618Z,101455.05
2019-02-18T07:05:57.399Z,101462.70
2019-02-18T07:10:22.077Z,101448.98
2019-02-18T07:14:24.718Z,101437.70
2019-02-18T07:18:27.477Z,101431.11
2019-02-18T07:22:30.015Z,101424.20
2019-02-18T07:26:34.590Z,101406.11
2019-02-18T07:30:37.203Z,101392.86
2019-02-18T07:34:39.942Z,101393.72
2019-02-18T07:38:42.608Z,101394.33
2019-02-18T07:42:45.352Z,101391.08
2019-02-18T07:46:47.998Z,101389.71
2019-02-18T07:50:50.758Z,101376.48
2019-02-18T07:54:53.339Z,101377.52
2019-02-18T07:58:55.961Z,101367.65
2019-02-18T08:02:58.847Z,101358.70
2019-02-18T08:07:01.428Z,101345.04
2019-02-18T08:11:04.032Z,101353.97
2019-02-18T08:15:07.045Z,101352.88
2019-02-18T08:19:09.603Z,101340.62
2019-02-18T08:23:12.328Z,101334.69
2019-02-18T08:27:15.417Z,101327.47
2019-02-18T08:31:18.143Z,101321.09
2019-02-18T08:35:20.833Z,101301.15
2019-02-18T08:39:23.620Z,101295.62
2019-02-18T08:43:26.329Z,101294.51
2019-02-18T08:47:29.073Z,101289.04
2019-02-18T08:51:31.609Z,101288.09
2019-02-18T08:55:34.115Z,101287.80
2019-02-18T08:59:36.625Z,101289.05
2019-02-18T09:03:39.258Z,101287.05
2019-02-18T09:07:41.824Z,101266.81
2019-02-18T09:11:44.152Z,101251.89
2019-02-18T09:15:46.553Z,101244.59
2019-02-18T09:19:53.454Z,101234.52
2019-02-18T09:24:05.489Z,101228.20
2019-02-18T09:28:09.272Z,101223.25
2019-02-18T09:32:12.243Z,101216.05
2019-02-18T09:36:14.817Z,101215.47
2019-02-18T09:40:17.239Z,101206.34
2019-02-18T09:44:19.983Z,101216.91
2019-02-18T09:48:22.604Z,101211.77
2019-02-18T09:52:25.452Z,101205.69
2019-02-18T09:56:28.207Z,101192.39
2019-02-18T10:00:30.786Z,101184.47
2019-02-18T10:04:33.298Z,101184.42
2019-02-18T10:08:36.030Z,101182.32
2019-02-18T10:12:38.572Z,101183.41
2019-02-18T10:16:41.332Z,101176.63
2019-02-18T10:20:44.140Z,101169.63
2019-02-18T10:24:50.726Z,101163.05
2019-02-18T10:28:51.298Z,101143.77
2019-02-18T10:32:54.228Z,101145.41
2019-02-18T10:36:56.806Z,101127.91
2019-02-18T10:41:06.412Z,101114.59
2019-02-18T10:45:03.884Z,101110.27
2019-02-18T10:49:18.965Z,101095.86
2019-02-18T10:53:12.208Z,101095.20
2019-02-18T10:57:14.990Z,101085.97
2019-02-18T11:01:17.651Z,101086.81
2019-02-18T11:05:20.467Z,101084.43
2019-02-18T11:09:23.186Z,101069.81
2019-02-18T11:13:25.770Z,101063.74
2019-02-18T11:17:38.498Z,101061.97
2019-02-18T11:21:32.984Z,101052.84
2019-02-18T11:25:35.574Z,101041.87
2019-02-18T11:29:38.556Z,101025.18
2019-02-18T11:33:41.168Z,101028.75
2019-02-18T11:37:44.088Z,101019.98
2019-02-18T11:41:46.588Z,101009.67
2019-02-18T11:45:49.027Z,100998.31
2019-02-18T11:49:55.158Z,100997.28
2019-02-18T11:53:57.111Z,100990.88
2019-02-18T11:57:59.804Z,100983.69
2019-02-18T12:02:02.687Z,100976.77
2019-02-18T12:06:05.372Z,100971.94
2019-02-18T12:10:08.592Z,100956.44
2019-02-18T12:14:11.427Z,100954.34
2019-02-18T12:18:14.347Z,100947.81
2019-02-18T12:22:17.467Z,100943.84
2019-02-18T12:26:20.207Z,100937.09
2019-02-18T12:30:23.084Z,100921.16
2019-02-18T12:34:26.008Z,100914.73
2019-02-18T12:38:28.863Z,100917.91
2019-02-18T12:42:31.728Z,100916.96
2019-02-18T12:46:34.437Z,100911.97
2019-02-18T12:50:37.132Z,100903.48
2019-02-18T12:54:39.819Z,100899.19
2019-02-18T12:58:42.516Z,100880.59
2019-02-18T13:02:45.404Z,100868.14
2019-02-18T13:06:48.094Z,100866.56
2019-02-18T13:10:50.912Z,100856.03
2019-02-18T13:14:53.682Z,100844.19
2019-02-18T13:18:56.577Z,100840.70
2019-02-18T13:22:59.261Z,100839.36
2019-02-18T13:27:02.172Z,100829.89
2019-02-18T13:31:04.957Z,100824.37
2019-02-18T13:35:08.269Z,100813.22
2019-02-18T13:39:11.083Z,100802.52
2019-02-18T13:43:13.832Z,100800.48
2019-02-18T13:47:16.721Z,100790.88
2019-02-18T13:51:24.283Z,100789.56
2019-02-18T13:55:24.207Z,100779.98
2019-02-18T13:59:26.903Z,100778.27
2019-02-18T14:03:29.675Z,100765.66
2019-02-18T14:07:32.380Z,100763.48
2019-02-18T14:11:35.234Z,100748.11
2019-02-18T14:15:37.804Z,100746.30
2019-02-18T14:19:40.478Z,100733.95
2019-02-18T14:23:43.026Z,100730.91
2019-02-18T14:27:45.693Z,100731.22
2019-02-18T14:31:49.559Z,100728.28
2019-02-18T14:35:52.246Z,100714.13
2019-02-18T14:39:54.921Z,100711.89
2019-02-18T14:43:58.453Z,100697.87
2019-02-18T14:48:01.209Z,100698.28
2019-02-18T14:52:04.416Z,100694.39
2019-02-18T14:56:07.762Z,100691.45
2019-02-18T15:00:20.943Z,100686.05
2019-02-18T15:04:23.431Z,100675.92
2019-02-18T15:08:25.933Z,100671.88
2019-02-18T15:12:33.103Z,100661.20
2019-02-18T15:16:32.440Z,100647.59
2019-02-18T15:20:34.779Z,100650.98
2019-02-18T15:24:37.329Z,100644.41
2019-02-18T15:28:39.883Z,100633.42
2019-02-18T15:32:43.264Z,100638.53
2019-02-18T15:36:45.658Z,100616.63
2019-02-18T15:40:48.289Z,100607.36
2019-02-18T15:44:51.233Z,100609.44
2019-02-18T15:48:53.844Z,100598.91
2019-02-18T15:52:56.872Z,100587.77
2019-02-18T15:56:59.430Z,100562.31
2019-02-18T16:01:02.109Z,100564.08
2019-02-18T16:05:05.068Z,100554.16
2019-02-18T16:09:08.594Z,100545.90
2019-02-18T16:13:11.304Z,100546.42
2019-02-18T16:17:14.014Z,100539.48
2019-02-18T16:21:16.832Z,100525.86
2019-02-18T16:25:20.952Z,100515.86
2019-02-18T16:29:23.774Z,100513.32
2019-02-18T16:33:26.484Z,100505.89
2019-02-18T16:37:29.274Z,100497.23
2019-02-18T16:41:32.022Z,100495.13
2019-02-18T16:45:34.778Z,100493.05
2019-02-18T16:49:37.814Z,100489.10
2019-02-18T16:53:41.006Z,100487.69
2019-02-18T16:57:43.800Z,100473.31
2019-02-18T17:01:46.912Z,100465.98
2019-02-18T17:05:49.406Z,100452.66
2019-02-18T17:09:52.150Z,100444.27
2019-02-18T17:13:54.990Z,100438.09
2019-02-18T17:17:57.759Z,100431.97
2019-02-18T17:22:00.370Z,100412.07
2019-02-18T17:26:03.022Z,100393.03
2019-02-18T17:30:06.090Z,100393.61
2019-02-18T17:34:08.961Z,100384.23
2019-02-18T17:38:11.679Z,100350.25
2019-02-18T17:42:14.430Z,100357.73
2019-02-18T17:46:16.938Z,100347.05
2019-02-18T17:50:20.795Z,100338.01
2019-02-18T17:54:24.743Z,100333.13
2019-02-18T17:58:27.606Z,100323.35
2019-02-18T18:02:30.299Z,100309.66
2019-02-18T18:06:33.028Z,100313.32
2019-02-18T18:10:35.744Z,100301.37
2019-02-18T18:14:38.546Z,100294.50
2019-02-18T18:18:41.393Z,100293.40
2019-02-18T18:22:44.194Z,100305.36
2019-02-18T18:26:47.231Z,100289.63
2019-02-18T18:30:49.968Z,100281.91
2019-02-18T18:34:53.006Z,100281.55
2019-02-18T18:38:55.783Z,100279.20
2019-02-18T18:42:58.399Z,100256.36
2019-02-18T18:47:01.238Z,100261.98
2019-02-18T18:51:04.089Z,100255.97
2019-02-18T18:55:07.329Z,100247.61
2019-02-18T18:59:09.949Z,100246.58
2019-02-18T19:03:12.779Z,100231.17
2019-02-18T19:07:15.359Z,100233.13
2019-02-18T19:11:18.205Z,100224.45
2019-02-18T19:15:20.858Z,100223.91
2019-02-18T19:19:23.824Z,100217.41
2019-02-18T19:23:26.458Z,100208.65
2019-02-18T19:27:29.503Z,100209.04
2019-02-18T19:31:32.189Z,100198.30
2019-02-18T19:35:35.107Z,100203.03
2019-02-18T19:39:37.745Z,100207.52
2019-02-18T19:43:40.416Z,100196.16
2019-02-18T19:47:43.193Z,100189.58
2019-02-18T19:51:46.238Z,100158.73
2019-02-18T19:55:50.660Z,100168.80
2019-02-18T19:59:53.300Z,100172.64
2019-02-18T20:03:55.914Z,100158.45
2019-02-18T20:07:58.596Z,100161.91
2019-02-18T20:12:01.207Z,100163.90
2019-02-18T20:16:03.994Z,100147.73
2019-02-18T20:20:07.103Z,100145.67
2019-02-18T20:24:09.713Z,100144.63
2019-02-18T20:28:13.263Z,100146.50
2019-02-18T20:32:16.064Z,100126.47
2019-02-18T20:36:18.752Z,100120.95
2019-02-18T20:40:21.490Z,100120.17
2019-02-18T20:44:24.246Z,100117.64
2019-02-18T20:48:26.918Z,100119.98
2019-02-18T20:52:29.526Z,100113.22
2019-02-18T20:56:32.324Z,100110.60
2019-02-18T21:00:35.024Z,100092.53
2019-02-18T21:04:37.923Z,100101.73
2019-02-18T21:08:40.584Z,100095.27
2019-02-18T21:12:43.464Z,100099.22
2019-02-18T21:16:46.179Z,100102.78
2019-02-18T21:20:51.275Z,100099.96
2019-02-18T21:24:54.047Z,100101.20
2019-02-18T21:28:57.241Z,100096.20
2019-02-18T21:32:59.939Z,100089.36
2019-02-18T21:37:03.929Z,100082.84
2019-02-18T21:41:06.617Z,100089.23
2019-02-18T21:45:10.656Z,100072.31
2019-02-18T21:49:16.068Z,100079.94
2019-02-18T21:53:18.882Z,100080.51
2019-02-18T21:57:21.971Z,100074.39
2019-02-18T22:01:24.797Z,100069.67
2019-02-18T22:05:27.610Z,100068.66
2019-02-18T22:09:30.787Z,100063.75
2019-02-18T22:13:33.741Z,100059.06
2019-02-18T22:17:36.369Z,100061.51
2019-02-18T22:21:38.985Z,100057.56
2019-02-18T22:25:41.834Z,100054.17
2019-02-18T22:29:44.588Z,100054.63
2019-02-18T22:33:47.357Z,100055.13
2019-02-18T22:37:50.197Z,100048.05
2019-02-18T22:41:53.113Z,100042.16
2019-02-18T22:45:56.097Z,100034.62
2019-02-18T22:49:58.830Z,100032.56
2019-02-18T22:54:01.436Z,100035.83
2019-02-18T22:58:04.297Z,100014.59
2019-02-18T23:02:09.266Z,100017.70
2019-02-18T23:06:13.947Z,100015.72
2019-02-18T23:10:16.719Z,100019.86
2019-02-18T23:14:19.570Z,100015.33
2019-02-18T23:18:22.655Z,100000.47
2019-02-18T23:22:25.753Z,99996.83
2019-02-18T23:26:28.285Z,99990.12
2019-02-18T23:30:31.267Z,99996.71
2019-02-18T23:34:33.764Z,99986.56
2019-02-18T23:38:36.638Z,99984.31
2019-02-18T23:42:39.743Z,99984.13
2019-02-18T23:46:42.613Z,99977.16
2019-02-18T23:50:45.242Z,99969.38
2019-02-18T23:54:48.111Z,99962.87
2019-02-18T23:58:50.941Z,99966.16
